Central City, KY (42330)

3:05 AM CDT on September 05, 2015 (GMT -0500)
West Side Oak Hill Cemetary .... dchsr | | Change Station
CLOSE
Current Station
Personal Weather Station
Location: Livermore, KY
Elevation: 436 ft
Nearby Weather Stations

Elev 436 ft 37.49 °N, 87.13 °W | Updated 2 seconds ago

Mostly Cloudy
Mostly Cloudy
71.3 °F
Feels Like 71.3 °F
N
0.0
Wind Variable Wind from SE
Gusts 0.0 mph

Today
High -- | Low -- °F
--% Chance of Precip.
Yesterday
High -- | Low -- °F
Precip. -- in
6:22 AM 7:11 PM
Waning Gibbous, 51% visible
Pressure 30.05 in
Visibility 0.2 miles
Clouds Mostly Cloudy 400 ft
Overcast 800 ft
Dew Point 68 °F
Humidity 88%
Rainfall 0.00 in
Snow Depth Not available.
UV 0 out of 12
Pollen 10.50 out of 12
Air Quality Not available.
Flu Activity Not available.
METAR K2I0 050755Z AUTO 00000KT 1/4SM FG BKN004 OVC008 21/21 A3005 RMK AO2 T02090209
Pressure 30.05 in
Visibility 0.2 miles
Clouds Mostly Cloudy 400 ft
Overcast 800 ft
Dew Point 68 °F
Humidity 88%
Rainfall 0.00 in
Snow Depth Not available.
UV 0 out of 12
Pollen 10.50 out of 12
Air Quality Not available.
Flu Activity Not available.
METAR K2I0 050755Z AUTO 00000KT 1/4SM FG BKN004 OVC008 21/21 A3005 RMK AO2 T02090209

10-Day Weather Forecast

×

Almanac

Astronomy

Sep. 05, 2015 Rise Set
Actual Time
Civil Twilight
Nautical Twilight
Astronomical Twilight
Moon
Length of Visible Light
Length of Day
Tomorrow will be .
, % of the Moon is Illuminated

Today's Extremes

State Highs State Lows

Community

WunderPhotos

Upload Photos

1,852,438 photos uploaded!

WunderBlogs® & News

Nearby

Air Quality

  Air Quality AQ Index Pollutant
Not available.

Snow Depth

Station Depth Elevation

Earthquake Activity

City Distance Mag. Time & Date
Minimum magnitude displayed is 2.5.

Coastal Water Temperatures

Place Temperature

Stations

Nearby Weather Stations

Station Location Temp. Windchill Dew Point Humidity Wind Precip. Elev Updated Type